sensor_id;sensor_type;location;lat;lon;timestamp;pressure;altitude;pressure_sealevel;temperature;humidity
10097;BME280;5087;42.662;23.466;2024-03-02T07:35:51;94873.91;;;6.57;100.00
10097;BME280;5087;42.662;23.466;2024-03-02T07:38:26;94870.81;;;6.50;100.00
10097;BME280;5087;42.662;23.466;2024-03-02T07:41:14;94900.03;;;6.71;100.00
10097;BME280;5087;42.662;23.466;2024-03-02T07:43:42;94891.19;;;6.56;100.00
10097;BME280;5087;42.662;23.466;2024-03-02T07:46:23;94914.91;;;6.82;100.00
10097;BME280;5087;42.662;23.466;2024-03-02T07:49:04;94887.50;;;6.66;100.00
10097;BME280;5087;42.662;23.466;2024-03-02T07:51:35;94913.69;;;6.88;100.00
10097;BME280;5087;42.662;23.466;2024-03-02T07:54:08;94911.72;;;6.80;100.00
10097;BME280;5087;42.662;23.466;2024-03-02T07:56:42;94910.56;;;6.72;100.00
10097;BME280;5087;42.662;23.466;2024-03-02T07:59:09;94902.72;;;6.71;100.00
10097;BME280;5087;42.662;23.466;2024-03-02T08:01:37;94889.81;;;6.59;100.00
10097;BME280;5087;42.662;23.466;2024-03-02T08:04:20;94880.41;;;6.56;100.00
10097;BME280;5087;42.662;23.466;2024-03-02T08:07:13;94925.50;;;6.92;100.00
10097;BME280;5087;42.662;23.466;2024-03-02T08:09:57;94907.91;;;6.81;100.00
10097;BME280;5087;42.662;23.466;2024-03-02T08:12:31;94922.28;;;6.90;100.00
10097;BME280;5087;42.662;23.466;2024-03-02T08:14:59;94911.34;;;6.73;100.00
10097;BME280;5087;42.662;23.466;2024-03-02T08:17:41;94889.94;;;6.76;100.00
10097;BME280;5087;42.662;23.466;2024-03-02T08:20:21;94916.66;;;7.01;100.00
10097;BME280;5087;42.662;23.466;2024-03-02T08:22:49;94923.63;;;7.02;100.00
10097;BME280;5087;42.662;23.466;2024-03-02T08:25:19;94925.38;;;6.97;100.00
10097;BME280;5087;42.662;23.466;2024-03-02T08:27:50;94928.25;;;7.01;100.00
10097;BME280;5087;42.662;23.466;2024-03-02T08:30:20;94897.50;;;6.88;100.00
10097;BME280;5087;42.662;23.466;2024-03-02T08:32:53;94919.03;;;7.16;100.00
10097;BME280;5087;42.662;23.466;2024-03-02T08:35:35;94879.34;;;6.80;100.00
10097;BME280;5087;42.662;23.466;2024-03-02T08:38:16;94888.31;;;6.89;100.00
10097;BME280;5087;42.662;23.466;2024-03-02T08:40:55;94882.31;;;6.92;100.00
10097;BME280;5087;42.662;23.466;2024-03-02T08:43:52;94885.81;;;7.16;100.00
10097;BME280;5087;42.662;23.466;2024-03-02T08:46:22;94929.31;;;7.37;100.00
10097;BME280;5087;42.662;23.466;2024-03-02T08:49:02;94911.28;;;7.46;100.00
10097;BME280;5087;42.662;23.466;2024-03-02T08:51:34;94903.47;;;7.44;100.00
10097;BME280;5087;42.662;23.466;2024-03-02T08:54:05;94898.16;;;7.31;100.00
10097;BME280;5087;42.662;23.466;2024-03-02T08:56:49;94927.81;;;7.76;100.00
10097;BME280;5087;42.662;23.466;2024-03-02T08:59:35;94925.97;;;7.63;100.00
10097;BME280;5087;42.662;23.466;2024-03-02T09:05:17;94910.75;;;7.67;100.00
10097;BME280;5087;42.662;23.466;2024-03-02T09:08:09;94929.78;;;7.84;100.00
10097;BME280;5087;42.662;23.466;2024-03-02T09:10:57;94942.75;;;7.73;100.00
10097;BME280;5087;42.662;23.466;2024-03-02T09:13:46;94946.00;;;7.84;100.00
10097;BME280;5087;42.662;23.466;2024-03-02T09:16:20;94900.72;;;7.36;100.00
10097;BME280;5087;42.662;23.466;2024-03-02T09:18:51;94933.25;;;7.53;100.00
10097;BME280;5087;42.662;23.466;2024-03-02T09:21:23;94934.59;;;7.65;100.00
10097;BME280;5087;42.662;23.466;2024-03-02T09:23:56;94929.91;;;7.56;100.00
10097;BME280;5087;42.662;23.466;2024-03-02T09:26:35;94938.63;;;7.76;100.00
10097;BME280;5087;42.662;23.466;2024-03-02T09:29:16;94909.31;;;7.60;100.00
10097;BME280;5087;42.662;23.466;2024-03-02T09:31:49;94921.25;;;7.68;100.00
10097;BME280;5087;42.662;23.466;2024-03-02T09:34:21;94897.41;;;7.39;100.00
10097;BME280;5087;42.662;23.466;2024-03-02T09:37:02;94911.50;;;7.58;100.00
10097;BME280;5087;42.662;23.466;2024-03-02T09:40:15;94933.34;;;7.71;100.00
10097;BME280;5087;42.662;23.466;2024-03-02T09:43:01;94915.19;;;7.63;100.00
10097;BME280;5087;42.662;23.466;2024-03-02T09:45:35;94916.78;;;7.64;100.00
10097;BME280;5087;42.662;23.466;2024-03-02T09:48:09;94945.38;;;7.87;100.00
10097;BME280;5087;42.662;23.466;2024-03-02T09:50:52;94900.53;;;7.32;100.00
10097;BME280;5087;42.662;23.466;2024-03-02T09:53:20;94942.19;;;7.63;100.00
10097;BME280;5087;42.662;23.466;2024-03-02T09:55:52;94929.97;;;7.88;100.00
10097;BME280;5087;42.662;23.466;2024-03-02T09:58:22;94913.84;;;7.83;100.00
10097;BME280;5087;42.662;23.466;2024-03-02T10:00:50;94914.50;;;7.80;100.00
10097;BME280;5087;42.662;23.466;2024-03-02T10:03:20;94916.88;;;7.81;100.00
10097;BME280;5087;42.662;23.466;2024-03-02T10:06:20;94937.88;;;8.16;100.00
10097;BME280;5087;42.662;23.466;2024-03-02T10:08:51;94934.38;;;8.15;100.00
10097;BME280;5087;42.662;23.466;2024-03-02T10:11:29;94909.03;;;7.71;100.00
10097;BME280;5087;42.662;23.466;2024-03-02T10:14:06;94920.81;;;7.75;100.00
10097;BME280;5087;42.662;23.466;2024-03-02T10:16:42;94886.06;;;7.51;100.00
10097;BME280;5087;42.662;23.466;2024-03-02T10:19:18;94887.44;;;7.48;100.00
10097;BME280;5087;42.662;23.466;2024-03-02T10:21:54;94911.63;;;7.76;100.00
10097;BME280;5087;42.662;23.466;2024-03-02T10:24:27;94935.56;;;7.69;100.00
10097;BME280;5087;42.662;23.466;2024-03-02T10:27:07;94930.41;;;7.58;100.00
10097;BME280;5087;42.662;23.466;2024-03-02T10:29:45;94936.03;;;7.71;100.00
10097;BME280;5087;42.662;23.466;2024-03-02T10:32:29;94886.41;;;7.58;100.00
10097;BME280;5087;42.662;23.466;2024-03-02T10:34:56;94913.50;;;7.44;100.00
10097;BME280;5087;42.662;23.466;2024-03-02T10:37:29;94916.19;;;7.44;100.00
10097;BME280;5087;42.662;23.466;2024-03-02T10:39:57;94932.72;;;7.42;100.00
10097;BME280;5087;42.662;23.466;2024-03-02T10:42:42;94939.03;;;7.60;100.00
10097;BME280;5087;42.662;23.466;2024-03-02T10:45:24;94943.06;;;7.49;100.00
10097;BME280;5087;42.662;23.466;2024-03-02T10:48:03;94930.28;;;7.41;100.00
10097;BME280;5087;42.662;23.466;2024-03-02T10:50:36;94875.81;;;7.16;100.00
10097;BME280;5087;42.662;23.466;2024-03-02T10:53:15;94870.66;;;7.28;100.00
10097;BME280;5087;42.662;23.466;2024-03-02T10:55:47;94914.63;;;7.52;100.00
10097;BME280;5087;42.662;23.466;2024-03-02T10:58:55;94904.88;;;7.65;100.00
10097;BME280;5087;42.662;23.466;2024-03-02T11:04:39;94892.03;;;7.39;100.00
10097;BME280;5087;42.662;23.466;2024-03-02T11:07:09;94900.22;;;7.56;100.00
10097;BME280;5087;42.662;23.466;2024-03-02T11:12:25;94907.06;;;7.85;100.00
10097;BME280;5087;42.662;23.466;2024-03-02T11:17:56;94885.50;;;8.03;100.00
10097;BME280;5087;42.662;23.466;2024-03-02T11:20:33;94894.53;;;7.98;100.00
10097;BME280;5087;42.662;23.466;2024-03-02T11:23:09;94878.00;;;7.59;100.00
10097;BME280;5087;42.662;23.466;2024-03-02T11:25:36;94916.56;;;7.83;100.00
10097;BME280;5087;42.662;23.466;2024-03-02T11:28:10;94877.06;;;7.64;100.00
10097;BME280;5087;42.662;23.466;2024-03-02T11:30:53;94881.22;;;7.70;100.00
10097;BME280;5087;42.662;23.466;2024-03-02T11:33:27;94894.19;;;7.59;100.00
10097;BME280;5087;42.662;23.466;2024-03-02T11:36:04;94894.13;;;7.73;100.00
10097;BME280;5087;42.662;23.466;2024-03-02T11:38:34;94879.66;;;7.78;100.00
10097;BME280;5087;42.662;23.466;2024-03-02T11:41:09;94857.22;;;7.69;100.00
10097;BME280;5087;42.662;23.466;2024-03-02T11:43:38;94892.91;;;7.88;100.00
10097;BME280;5087;42.662;23.466;2024-03-02T11:46:31;94878.78;;;7.91;100.00
10097;BME280;5087;42.662;23.466;2024-03-02T11:49:07;94881.78;;;7.90;100.00
10097;BME280;5087;42.662;23.466;2024-03-02T11:52:00;94874.31;;;7.87;100.00
10097;BME280;5087;42.662;23.466;2024-03-02T11:54:38;94894.94;;;8.14;100.00
10097;BME280;5087;42.662;23.466;2024-03-02T11:57:13;94905.56;;;8.11;100.00
10097;BME280;5087;42.662;23.466;2024-03-02T11:59:42;94873.50;;;7.86;100.00
10097;BME280;5087;42.662;23.466;2024-03-02T12:02:17;94894.38;;;7.95;100.00
10097;BME280;5087;42.662;23.466;2024-03-02T12:04:46;94886.59;;;8.02;100.00
10097;BME280;5087;42.662;23.466;2024-03-02T12:07:21;94883.78;;;8.07;100.00
10097;BME280;5087;42.662;23.466;2024-03-02T12:09:49;94901.16;;;8.23;100.00
10097;BME280;5087;42.662;23.466;2024-03-02T12:12:28;94885.56;;;8.20;100.00
10097;BME280;5087;42.662;23.466;2024-03-02T12:14:56;94909.47;;;8.36;100.00
10097;BME280;5087;42.662;23.466;2024-03-02T12:17:31;94857.09;;;8.23;100.00
10097;BME280;5087;42.662;23.466;2024-03-02T12:20:17;94898.41;;;8.55;100.00
10097;BME280;5087;42.662;23.466;2024-03-02T12:22:55;94904.38;;;8.34;100.00
10097;BME280;5087;42.662;23.466;2024-03-02T12:25:40;94906.16;;;8.39;100.00
10097;BME280;5087;42.662;23.466;2024-03-02T12:28:38;94894.06;;;8.45;100.00
10097;BME280;5087;42.662;23.466;2024-03-02T12:31:23;94893.06;;;8.32;100.00
10097;BME280;5087;42.662;23.466;2024-03-02T12:34:04;94858.47;;;8.03;100.00
10097;BME280;5087;42.662;23.466;2024-03-02T12:36:37;94859.53;;;7.93;100.00
10097;BME280;5087;42.662;23.466;2024-03-02T12:39:23;94878.88;;;8.18;100.00
10097;BME280;5087;42.662;23.466;2024-03-02T12:41:59;94875.94;;;7.97;100.00
10097;BME280;5087;42.662;23.466;2024-03-02T12:44:29;94876.63;;;8.11;100.00
10097;BME280;5087;42.662;23.466;2024-03-02T12:46:57;94885.84;;;8.10;100.00
10097;BME280;5087;42.662;23.466;2024-03-02T12:49:39;94916.19;;;8.47;100.00
10097;BME280;5087;42.662;23.466;2024-03-02T12:52:07;94877.94;;;8.22;100.00
10097;BME280;5087;42.662;23.466;2024-03-02T12:54:40;94883.38;;;8.40;100.00
10097;BME280;5087;42.662;23.466;2024-03-02T12:57:32;94880.78;;;8.17;100.00
10097;BME280;5087;42.662;23.466;2024-03-02T13:00:05;94869.94;;;8.17;100.00
10097;BME280;5087;42.662;23.466;2024-03-02T13:02:42;94906.75;;;8.36;100.00
10097;BME280;5087;42.662;23.466;2024-03-02T13:05:34;94905.13;;;8.93;100.00
10097;BME280;5087;42.662;23.466;2024-03-02T13:08:05;94886.47;;;8.56;100.00
10097;BME280;5087;42.662;23.466;2024-03-02T13:10:39;94919.28;;;8.63;100.00
10097;BME280;5087;42.662;23.466;2024-03-02T13:13:20;94891.25;;;8.50;100.00
10097;BME280;5087;42.662;23.466;2024-03-02T13:15:56;94904.94;;;8.54;100.00
10097;BME280;5087;42.662;23.466;2024-03-02T13:18:23;94907.47;;;8.59;100.00
10097;BME280;5087;42.662;23.466;2024-03-02T13:20:53;94906.25;;;8.74;100.00
10097;BME280;5087;42.662;23.466;2024-03-02T13:23:21;94878.94;;;8.44;100.00
10097;BME280;5087;42.662;23.466;2024-03-02T13:25:49;94891.59;;;8.84;100.00
10097;BME280;5087;42.662;23.466;2024-03-02T13:28:21;94883.78;;;8.65;100.00
10097;BME280;5087;42.662;23.466;2024-03-02T13:30:49;94902.91;;;8.95;100.00
10097;BME280;5087;42.662;23.466;2024-03-02T13:33:16;94879.81;;;9.32;100.00
10097;BME280;5087;42.662;23.466;2024-03-02T13:35:59;94880.78;;;9.10;100.00
10097;BME280;5087;42.662;23.466;2024-03-02T13:38:27;94854.94;;;9.39;100.00
10097;BME280;5087;42.662;23.466;2024-03-02T13:41:00;94876.34;;;9.79;100.00
10097;BME280;5087;42.662;23.466;2024-03-02T13:43:28;94898.81;;;9.89;100.00
10097;BME280;5087;42.662;23.466;2024-03-02T13:45:57;94902.69;;;10.18;100.00
10097;BME280;5087;42.662;23.466;2024-03-02T13:48:25;94898.19;;;9.92;100.00
10097;BME280;5087;42.662;23.466;2024-03-02T13:50:57;94920.31;;;10.03;100.00
10097;BME280;5087;42.662;23.466;2024-03-02T13:53:25;94919.50;;;10.02;100.00
10097;BME280;5087;42.662;23.466;2024-03-02T13:55:56;94877.97;;;9.80;100.00
10097;BME280;5087;42.662;23.466;2024-03-02T13:58:24;94887.25;;;10.18;100.00
10097;BME280;5087;42.662;23.466;2024-03-02T14:00:52;94880.06;;;10.13;100.00
10097;BME280;5087;42.662;23.466;2024-03-02T14:03:26;94928.78;;;10.49;100.00
10097;BME280;5087;42.662;23.466;2024-03-02T14:05:53;94900.44;;;10.37;100.00
10097;BME280;5087;42.662;23.466;2024-03-02T14:08:23;94913.47;;;10.44;100.00
10097;BME280;5087;42.662;23.466;2024-03-02T14:10:53;94894.41;;;10.23;100.00
10097;BME280;5087;42.662;23.466;2024-03-02T14:13:23;94874.97;;;10.12;100.00
10097;BME280;5087;42.662;23.466;2024-03-02T14:15:52;94928.78;;;10.49;100.00
10097;BME280;5087;42.662;23.466;2024-03-02T14:18:24;94911.44;;;10.62;100.00
10097;BME280;5087;42.662;23.466;2024-03-02T14:20:51;94896.94;;;10.28;100.00
10097;BME280;5087;42.662;23.466;2024-03-02T14:23:26;94886.72;;;10.25;100.00
10097;BME280;5087;42.662;23.466;2024-03-02T14:25:57;94937.28;;;10.29;100.00
10097;BME280;5087;42.662;23.466;2024-03-02T14:28:26;94900.13;;;9.74;100.00
10097;BME280;5087;42.662;23.466;2024-03-02T14:30:57;94899.97;;;9.70;100.00
10097;BME280;5087;42.662;23.466;2024-03-02T14:33:30;94934.81;;;10.07;100.00
10097;BME280;5087;42.662;23.466;2024-03-02T14:35:57;94931.47;;;10.01;100.00
10097;BME280;5087;42.662;23.466;2024-03-02T14:38:26;94925.56;;;10.08;100.00
10097;BME280;5087;42.662;23.466;2024-03-02T14:40:54;94945.53;;;9.94;100.00
10097;BME280;5087;42.662;23.466;2024-03-02T14:43:22;94924.56;;;9.47;100.00
10097;BME280;5087;42.662;23.466;2024-03-02T14:45:49;94932.69;;;9.56;100.00
10097;BME280;5087;42.662;23.466;2024-03-02T14:48:19;94902.44;;;9.28;100.00
10097;BME280;5087;42.662;23.466;2024-03-02T14:50:47;94940.81;;;9.65;100.00
10097;BME280;5087;42.662;23.466;2024-03-02T14:53:14;94898.13;;;9.27;100.00
10097;BME280;5087;42.662;23.466;2024-03-02T14:55:43;94922.03;;;9.60;100.00
10097;BME280;5087;42.662;23.466;2024-03-02T14:58:14;94903.84;;;9.52;100.00
10097;BME280;5087;42.662;23.466;2024-03-02T15:00:41;94889.06;;;9.14;100.00
10097;BME280;5087;42.662;23.466;2024-03-02T15:03:09;94909.41;;;9.46;100.00
10097;BME280;5087;42.662;23.466;2024-03-02T15:05:38;94915.94;;;9.63;100.00
10097;BME280;5087;42.662;23.466;2024-03-02T15:08:06;94948.31;;;9.59;100.00
10097;BME280;5087;42.662;23.466;2024-03-02T15:10:34;94907.38;;;9.43;100.00
10097;BME280;5087;42.662;23.466;2024-03-02T15:13:05;94908.97;;;9.44;100.00
10097;BME280;5087;42.662;23.466;2024-03-02T15:15:33;94935.38;;;9.65;100.00
10097;BME280;5087;42.662;23.466;2024-03-02T15:18:01;94942.09;;;9.76;100.00
10097;BME280;5087;42.662;23.466;2024-03-02T15:20:29;94946.88;;;9.62;100.00
10097;BME280;5087;42.662;23.466;2024-03-02T15:22:57;94956.13;;;9.61;100.00
10097;BME280;5087;42.662;23.466;2024-03-02T15:25:25;94960.09;;;9.55;100.00
10097;BME280;5087;42.662;23.466;2024-03-02T15:27:56;94949.13;;;9.42;100.00
10097;BME280;5087;42.662;23.466;2024-03-02T15:30:25;94967.16;;;9.38;100.00
10097;BME280;5087;42.662;23.466;2024-03-02T15:33:00;94925.06;;;9.06;100.00
10097;BME280;5087;42.662;23.466;2024-03-02T15:35:46;94943.53;;;9.39;100.00
10097;BME280;5087;42.662;23.466;2024-03-02T15:38:13;94958.50;;;9.27;100.00
10097;BME280;5087;42.662;23.466;2024-03-02T15:40:42;94934.16;;;9.18;100.00
10097;BME280;5087;42.662;23.466;2024-03-02T15:43:12;94962.53;;;9.30;100.00
10097;BME280;5087;42.662;23.466;2024-03-02T15:45:41;94918.22;;;9.26;100.00
10097;BME280;5087;42.662;23.466;2024-03-02T15:48:09;94962.66;;;9.51;100.00
10097;BME280;5087;42.662;23.466;2024-03-02T15:50:36;94950.72;;;9.43;100.00
10097;BME280;5087;42.662;23.466;2024-03-02T15:53:04;94916.94;;;9.32;100.00
10097;BME280;5087;42.662;23.466;2024-03-02T15:55:35;94953.72;;;9.59;100.00
10097;BME280;5087;42.662;23.466;2024-03-02T15:58:04;94934.31;;;9.57;100.00
10097;BME280;5087;42.662;23.466;2024-03-02T16:00:32;94959.00;;;9.64;100.00
10097;BME280;5087;42.662;23.466;2024-03-02T16:03:06;94930.31;;;9.46;100.00
10097;BME280;5087;42.662;23.466;2024-03-02T16:05:37;94978.44;;;9.75;100.00
10097;BME280;5087;42.662;23.466;2024-03-02T16:08:05;94965.03;;;9.70;100.00
10097;BME280;5087;42.662;23.466;2024-03-02T16:10:32;94973.47;;;9.86;100.00
10097;BME280;5087;42.662;23.466;2024-03-02T16:13:00;94980.78;;;9.86;100.00
10097;BME280;5087;42.662;23.466;2024-03-02T16:15:29;94951.97;;;9.55;100.00
10097;BME280;5087;42.662;23.466;2024-03-02T16:17:57;94977.34;;;9.59;100.00
10097;BME280;5087;42.662;23.466;2024-03-02T16:20:50;94959.31;;;9.28;100.00
10097;BME280;5087;42.662;23.466;2024-03-02T16:23:29;94977.50;;;9.36;100.00
10097;BME280;5087;42.662;23.466;2024-03-02T16:25:59;94957.72;;;9.09;100.00
10097;BME280;5087;42.662;23.466;2024-03-02T16:28:30;94972.53;;;9.29;100.00
10097;BME280;5087;42.662;23.466;2024-03-02T16:30:58;94977.63;;;9.22;100.00
10097;BME280;5087;42.662;23.466;2024-03-02T16:33:26;94960.25;;;8.97;100.00
10097;BME280;5087;42.662;23.466;2024-03-02T16:35:55;94966.03;;;9.22;100.00
10097;BME280;5087;42.662;23.466;2024-03-02T16:38:23;94938.91;;;9.04;100.00
10097;BME280;5087;42.662;23.466;2024-03-02T16:40:52;94977.47;;;9.27;100.00
10097;BME280;5087;42.662;23.466;2024-03-02T16:43:19;94987.03;;;9.25;100.00
10097;BME280;5087;42.662;23.466;2024-03-02T16:45:46;94936.81;;;8.75;100.00
10097;BME280;5087;42.662;23.466;2024-03-02T16:48:13;94956.56;;;8.75;100.00
10097;BME280;5087;42.662;23.466;2024-03-02T16:50:41;94995.94;;;9.16;100.00
10097;BME280;5087;42.662;23.466;2024-03-02T16:53:10;94982.09;;;9.18;100.00
10097;BME280;5087;42.662;23.466;2024-03-02T16:55:46;94986.22;;;9.07;100.00
10097;BME280;5087;42.662;23.466;2024-03-02T16:58:16;94995.94;;;9.16;100.00
10097;BME280;5087;42.662;23.466;2024-03-02T17:00:45;94972.69;;;8.98;100.00
10097;BME280;5087;42.662;23.466;2024-03-02T17:03:12;94966.13;;;8.81;100.00
10097;BME280;5087;42.662;23.466;2024-03-02T17:05:40;94952.69;;;8.67;100.00
10097;BME280;5087;42.662;23.466;2024-03-02T17:08:09;94953.94;;;8.52;100.00
10097;BME280;5087;42.662;23.466;2024-03-02T17:10:39;95005.41;;;8.70;100.00
10097;BME280;5087;42.662;23.466;2024-03-02T17:13:06;94998.16;;;8.48;100.00
10097;BME280;5087;42.662;23.466;2024-03-02T17:15:41;94983.88;;;8.24;100.00
10097;BME280;5087;42.662;23.466;2024-03-02T17:18:15;94970.31;;;8.16;100.00
10097;BME280;5087;42.662;23.466;2024-03-02T17:20:43;95028.22;;;8.46;100.00
10097;BME280;5087;42.662;23.466;2024-03-02T17:23:14;94994.28;;;8.40;100.00
10097;BME280;5087;42.662;23.466;2024-03-02T17:25:41;95028.47;;;8.67;100.00
10097;BME280;5087;42.662;23.466;2024-03-02T17:28:23;94993.34;;;8.76;100.00
10097;BME280;5087;42.662;23.466;2024-03-02T17:30:55;95018.47;;;8.77;100.00
10097;BME280;5087;42.662;23.466;2024-03-02T17:33:25;94986.16;;;8.40;100.00
10097;BME280;5087;42.662;23.466;2024-03-02T17:35:52;95021.59;;;8.52;100.00
10097;BME280;5087;42.662;23.466;2024-03-02T17:38:30;95001.34;;;8.18;100.00
10097;BME280;5087;42.662;23.466;2024-03-02T17:40:57;95002.59;;;8.12;100.00
10097;BME280;5087;42.662;23.466;2024-03-02T17:43:25;94985.47;;;7.94;100.00
10097;BME280;5087;42.662;23.466;2024-03-02T17:45:52;94991.59;;;8.08;100.00
10097;BME280;5087;42.662;23.466;2024-03-02T17:48:19;95001.97;;;8.15;100.00
10097;BME280;5087;42.662;23.466;2024-03-02T17:50:47;95007.75;;;8.22;100.00
10097;BME280;5087;42.662;23.466;2024-03-02T17:53:15;95039.13;;;8.64;100.00
10097;BME280;5087;42.662;23.466;2024-03-02T17:55:47;95034.75;;;8.85;100.00
10097;BME280;5087;42.662;23.466;2024-03-02T17:58:14;95022.81;;;8.46;100.00
10097;BME280;5087;42.662;23.466;2024-03-02T18:00:41;95018.38;;;8.19;100.00
10097;BME280;5087;42.662;23.466;2024-03-02T18:03:18;95023.69;;;8.33;100.00
10097;BME280;5087;42.662;23.466;2024-03-02T18:05:49;95042.84;;;8.45;100.00
10097;BME280;5087;42.662;23.466;2024-03-02T18:08:17;95047.66;;;8.48;100.00
10097;BME280;5087;42.662;23.466;2024-03-02T18:10:48;94994.06;;;8.28;100.00
10097;BME280;5087;42.662;23.466;2024-03-02T18:13:26;95021.38;;;8.17;100.00
10097;BME280;5087;42.662;23.466;2024-03-02T18:15:54;95013.94;;;7.69;100.00
10097;BME280;5087;42.662;23.466;2024-03-02T18:18:22;95023.22;;;7.63;100.00
10097;BME280;5087;42.662;23.466;2024-03-02T18:20:50;95029.09;;;7.56;100.00
10097;BME280;5087;42.662;23.466;2024-03-02T18:23:23;95005.97;;;7.27;100.00
10097;BME280;5087;42.662;23.466;2024-03-02T18:25:54;95005.16;;;7.26;100.00
10097;BME280;5087;42.662;23.466;2024-03-02T18:28:34;94998.72;;;7.36;100.00
10097;BME280;5087;42.662;23.466;2024-03-02T18:31:02;95052.03;;;7.67;100.00
10097;BME280;5087;42.662;23.466;2024-03-02T18:33:37;95043.56;;;7.60;100.00
10097;BME280;5087;42.662;23.466;2024-03-02T18:36:09;95047.09;;;7.47;100.00
10097;BME280;5087;42.662;23.466;2024-03-02T18:38:51;95022.75;;;7.38;100.00
10097;BME280;5087;42.662;23.466;2024-03-02T18:41:21;95046.66;;;7.31;100.00
10097;BME280;5087;42.662;23.466;2024-03-02T18:43:55;95022.13;;;7.04;100.00
10097;BME280;5087;42.662;23.466;2024-03-02T18:46:23;95053.69;;;7.18;100.00
10097;BME280;5087;42.662;23.466;2024-03-02T18:48:50;95049.59;;;7.06;100.00
10097;BME280;5087;42.662;23.466;2024-03-02T18:51:20;95056.56;;;7.21;100.00
10097;BME280;5087;42.662;23.466;2024-03-02T18:53:48;95026.69;;;7.04;100.00
10097;BME280;5087;42.662;23.466;2024-03-02T18:56:15;95026.59;;;7.09;100.00
10097;BME280;5087;42.662;23.466;2024-03-02T18:58:47;95014.47;;;7.20;100.00
10097;BME280;5087;42.662;23.466;2024-03-02T19:01:16;95054.13;;;7.34;100.00
10097;BME280;5087;42.662;23.466;2024-03-02T19:03:56;95023.50;;;7.02;100.00
10097;BME280;5087;42.662;23.466;2024-03-02T19:06:24;95034.53;;;6.91;100.00
10097;BME280;5087;42.662;23.466;2024-03-02T19:08:51;95069.56;;;7.05;100.00
10097;BME280;5087;42.662;23.466;2024-03-02T19:11:18;95042.22;;;6.84;100.00
10097;BME280;5087;42.662;23.466;2024-03-02T19:13:50;95055.03;;;6.92;100.00
10097;BME280;5087;42.662;23.466;2024-03-02T19:16:18;95051.63;;;6.59;100.00
10097;BME280;5087;42.662;23.466;2024-03-02T19:19:12;95047.81;;;6.46;100.00
10097;BME280;5087;42.662;23.466;2024-03-02T19:21:39;95027.09;;;6.27;100.00
10097;BME280;5087;42.662;23.466;2024-03-02T19:24:07;95066.34;;;6.33;100.00
10097;BME280;5087;42.662;23.466;2024-03-02T19:26:34;95064.97;;;6.50;100.00
10097;BME280;5087;42.662;23.466;2024-03-02T19:29:03;95057.50;;;6.47;100.00
10097;BME280;5087;42.662;23.466;2024-03-02T19:31:31;95052.88;;;6.33;100.00
10097;BME280;5087;42.662;23.466;2024-03-02T19:33:58;95026.53;;;5.97;100.00
10097;BME280;5087;42.662;23.466;2024-03-02T19:36:26;95015.63;;;6.08;100.00
10097;BME280;5087;42.662;23.466;2024-03-02T19:38:53;95065.47;;;6.24;100.00
10097;BME280;5087;42.662;23.466;2024-03-02T19:41:30;95077.09;;;6.06;100.00
10097;BME280;5087;42.662;23.466;2024-03-02T19:43:59;95076.03;;;6.34;100.00
10097;BME280;5087;42.662;23.466;2024-03-02T19:46:30;95033.69;;;6.21;100.00
10097;BME280;5087;42.662;23.466;2024-03-02T19:49:03;95078.72;;;6.21;100.00
10097;BME280;5087;42.662;23.466;2024-03-02T19:51:31;95080.66;;;6.01;100.00
10097;BME280;5087;42.662;23.466;2024-03-02T19:53:58;95081.59;;;5.91;100.00
10097;BME280;5087;42.662;23.466;2024-03-02T19:56:25;95075.31;;;6.15;100.00
10097;BME280;5087;42.662;23.466;2024-03-02T19:58:54;95069.72;;;6.25;100.00
10097;BME280;5087;42.662;23.466;2024-03-02T20:01:24;95081.38;;;6.07;100.00
10097;BME280;5087;42.662;23.466;2024-03-02T20:03:59;95078.50;;;6.17;100.00
10097;BME280;5087;42.662;23.466;2024-03-02T20:06:29;95051.53;;;6.17;100.00
10097;BME280;5087;42.662;23.466;2024-03-02T20:08:57;95059.06;;;6.20;100.00
10097;BME280;5087;42.662;23.466;2024-03-02T20:11:33;95084.75;;;6.31;100.00
10097;BME280;5087;42.662;23.466;2024-03-02T20:14:00;95063.75;;;6.28;100.00
10097;BME280;5087;42.662;23.466;2024-03-02T20:16:31;95071.47;;;6.49;100.00
10097;BME280;5087;42.662;23.466;2024-03-02T20:18:59;95098.16;;;6.64;100.00
10097;BME280;5087;42.662;23.466;2024-03-02T20:21:28;95082.78;;;6.65;100.00
10097;BME280;5087;42.662;23.466;2024-03-02T20:23:55;95081.09;;;6.69;100.00
10097;BME280;5087;42.662;23.466;2024-03-02T20:26:23;95057.31;;;6.57;100.00
10097;BME280;5087;42.662;23.466;2024-03-02T20:28:50;95045.72;;;6.57;100.00
10097;BME280;5087;42.662;23.466;2024-03-02T20:31:18;95088.38;;;6.82;100.00
10097;BME280;5087;42.662;23.466;2024-03-02T20:33:46;95053.59;;;6.67;100.00
10097;BME280;5087;42.662;23.466;2024-03-02T20:36:15;95098.78;;;6.89;100.00
10097;BME280;5087;42.662;23.466;2024-03-02T20:38:43;95081.78;;;6.75;100.00
10097;BME280;5087;42.662;23.466;2024-03-02T20:41:14;95043.91;;;6.52;100.00
10097;BME280;5087;42.662;23.466;2024-03-02T20:43:53;95098.56;;;6.72;100.00
10097;BME280;5087;42.662;23.466;2024-03-02T20:46:20;95090.28;;;6.68;100.00
10097;BME280;5087;42.662;23.466;2024-03-02T20:48:47;95048.41;;;6.43;100.00
10097;BME280;5087;42.662;23.466;2024-03-02T20:51:16;95093.00;;;6.82;100.00
10097;BME280;5087;42.662;23.466;2024-03-02T20:53:46;95075.81;;;6.78;100.00
10097;BME280;5087;42.662;23.466;2024-03-02T20:56:14;95055.28;;;6.49;100.00
10097;BME280;5087;42.662;23.466;2024-03-02T20:58:42;95090.75;;;6.56;100.00
10097;BME280;5087;42.662;23.466;2024-03-02T21:01:11;95091.94;;;6.50;100.00
10097;BME280;5087;42.662;23.466;2024-03-02T21:03:42;95042.38;;;6.18;100.00
10097;BME280;5087;42.662;23.466;2024-03-02T21:06:11;95053.34;;;6.08;100.00
10097;BME280;5087;42.662;23.466;2024-03-02T21:08:40;95083.44;;;6.43;100.00
10097;BME280;5087;42.662;23.466;2024-03-02T21:11:07;95047.13;;;6.07;100.00
10097;BME280;5087;42.662;23.466;2024-03-02T21:13:35;95081.94;;;6.37;100.00
10097;BME280;5087;42.662;23.466;2024-03-02T21:16:03;95084.34;;;6.38;100.00